Time;durP1;ratioP1;P1;durP2;ratioP2;P2;SDS_P1;SDS_P2;PMS_P1;PMS_P2;Temp;Humidity;BMP_temperature;BMP_pressure;BME280_temperature;BME280_humidity;BME280_pressure;Samples;Min_cycle;Max_cycle;Signal;HPM_P1;HPM_P2
2021/11/05 00:02:29;;;;;;;1.05;1.05;;;;;;;5.99;90.05;98696.28;4881174;29;20108;-72
2021/11/05 00:04:54;;;;;;;0.77;0.77;;;;;;;5.97;89.96;98690.31;4881183;29;20032;-72
2021/11/05 00:07:19;;;;;;;0.57;0.57;;;;;;;6.03;91.71;98695.44;4888137;29;20041;-72
2021/11/05 00:09:44;;;;;;;0.75;0.75;;;;;;;5.98;90.87;98689.44;4881105;29;20040;-72
2021/11/05 00:12:10;;;;;;;0.40;0.40;;;;;;;6.08;91.08;98699.69;4884845;29;20029;-72
2021/11/05 00:14:35;;;;;;;0.88;0.88;;;;;;;6.07;91.04;98699.72;4892082;29;20476;-72
2021/11/05 00:17:01;;;;;;;0.52;0.52;;;;;;;6.21;88.54;98690.25;4899749;29;20031;-72
2021/11/05 00:19:26;;;;;;;0.88;0.88;;;;;;;6.37;89.82;98699.66;4899603;29;20060;-72
2021/11/05 00:21:51;;;;;;;0.98;0.93;;;;;;;6.20;88.74;98704.00;4898457;29;20037;-72
2021/11/05 00:24:17;;;;;;;0.75;0.75;;;;;;;6.47;86.82;98699.63;4899681;29;20056;-72
2021/11/05 00:26:42;;;;;;;1.45;1.00;;;;;;;6.44;88.73;98700.50;4895480;29;20450;-72
2021/11/05 00:29:08;;;;;;;0.80;0.77;;;;;;;6.30;87.29;98703.13;4892322;29;20115;-72
2021/11/05 00:31:33;;;;;;;0.65;0.65;;;;;;;6.47;86.36;98694.47;4899130;29;20505;-72
2021/11/05 00:33:58;;;;;;;1.27;0.80;;;;;;;6.45;87.44;98702.22;4899399;29;20500;-72
2021/11/05 00:36:24;;;;;;;0.60;0.60;;;;;;;6.25;86.09;98703.97;4899483;29;20024;-72
2021/11/05 00:38:49;;;;;;;2.15;0.80;;;;;;;6.21;87.50;98708.28;4899205;29;20036;-72
2021/11/05 00:41:15;;;;;;;0.60;0.60;;;;;;;6.12;88.26;98709.13;4895075;29;20029;-72
2021/11/05 00:43:41;;;;;;;0.47;0.47;;;;;;;6.20;90.33;98722.00;4888665;29;20104;-72
2021/11/05 00:46:06;;;;;;;0.50;0.50;;;;;;;6.22;90.30;98715.13;4899362;29;20067;-72
2021/11/05 00:48:32;;;;;;;1.13;0.95;;;;;;;6.12;89.93;98719.44;4899250;29;20281;-72
2021/11/05 00:50:57;;;;;;;1.02;1.00;;;;;;;6.01;90.31;98722.88;4899170;29;20056;-72
2021/11/05 00:53:23;;;;;;;0.50;0.50;;;;;;;6.07;91.93;98721.16;4898914;29;20039;-72
2021/11/05 00:55:49;;;;;;;0.75;0.75;;;;;;;6.02;94.16;98722.88;4899092;29;20028;-72
2021/11/05 00:58:14;;;;;;;1.05;1.02;;;;;;;6.13;94.49;98722.84;4899130;29;20471;-72
2021/11/05 05:16:41;;;;;;;1.83;1.65;;;;;;;5.19;100.00;98942.78;5302749;23;20570;-71
2021/11/05 05:19:06;;;;;;;0.70;0.70;;;;;;;5.17;100.00;98952.19;4880025;29;20036;-71
2021/11/05 05:21:32;;;;;;;0.80;0.80;;;;;;;5.14;100.00;98954.75;4879820;29;20130;-70
2021/11/05 05:23:57;;;;;;;0.88;0.88;;;;;;;5.20;100.00;98949.63;4879913;29;20033;-71
2021/11/05 05:26:22;;;;;;;0.85;0.85;;;;;;;5.11;100.00;98950.44;4879816;29;20115;-71
2021/11/05 05:28:48;;;;;;;0.60;0.60;;;;;;;5.14;100.00;98954.75;4880348;29;20029;-76
2021/11/05 05:31:13;;;;;;;1.30;1.20;;;;;;;5.10;100.00;98963.28;4879619;29;20049;-76
2021/11/05 05:33:39;;;;;;;0.80;0.80;;;;;;;5.13;100.00;98968.44;4859876;29;20589;-76
2021/11/05 05:36:06;;;;;;;0.93;0.93;;;;;;;5.25;100.00;98957.38;4879634;29;20088;-76
2021/11/05 05:38:32;;;;;;;0.98;0.93;;;;;;;5.22;100.00;98959.91;4879553;29;20037;-77
2021/11/05 05:40:57;;;;;;;0.75;0.70;;;;;;;5.18;100.00;98971.91;4879683;29;20070;-79
2021/11/05 05:43:23;;;;;;;0.90;0.73;;;;;;;5.23;100.00;98962.50;4887321;29;20021;-76
2021/11/05 05:45:48;;;;;;;1.02;1.02;;;;;;;5.26;100.00;98975.34;4896315;29;20450;-76
2021/11/05 05:48:13;;;;;;;1.20;1.10;;;;;;;5.12;100.00;98976.97;4898212;29;20038;-76
2021/11/05 05:50:39;;;;;;;0.90;0.90;;;;;;;5.29;100.00;98970.25;4898007;29;20041;-76
2021/11/05 05:53:04;;;;;;;0.55;0.55;;;;;;;5.27;100.00;98977.09;4897543;29;20084;-76
2021/11/05 05:55:30;;;;;;;1.65;1.55;;;;;;;5.28;100.00;98989.09;4897952;29;20031;-76
2021/11/05 05:57:55;;;;;;;0.82;0.82;;;;;;;5.30;100.00;98982.22;4898112;29;20032;-76
2021/11/05 06:00:21;;;;;;;1.10;1.00;;;;;;;5.24;100.00;98992.47;4897932;29;20490;-76
2021/11/05 06:02:46;;;;;;;1.05;0.95;;;;;;;5.22;100.00;98991.63;4897866;29;20076;-77
2021/11/05 06:05:12;;;;;;;1.08;1.08;;;;;;;5.27;100.00;98997.66;4898291;29;20032;-76
2021/11/05 06:07:38;;;;;;;1.02;1.02;;;;;;;5.29;100.00;99010.50;4897875;29;20029;-76
2021/11/05 06:10:05;;;;;;;0.50;0.50;;;;;;;5.28;100.00;99013.91;4897787;29;20035;-76
2021/11/05 06:12:32;;;;;;;0.90;0.88;;;;;;;5.34;100.00;99019.94;4890477;29;20020;-76
2021/11/05 06:14:57;;;;;;;1.25;1.25;;;;;;;5.24;100.00;99018.16;4890104;29;20029;-76
2021/11/05 06:17:23;;;;;;;1.00;1.00;;;;;;;5.25;100.00;99025.00;4897488;29;20490;-76
2021/11/05 06:19:48;;;;;;;0.85;0.85;;;;;;;5.28;100.00;99025.06;4897677;29;20058;-76
2021/11/05 06:22:14;;;;;;;0.82;0.82;;;;;;;5.27;100.00;99030.16;4897317;29;20096;-76
2021/11/05 06:24:39;;;;;;;1.23;1.17;;;;;;;5.34;100.00;99031.94;4897567;29;20394;-77
2021/11/05 06:27:05;;;;;;;2.53;1.48;;;;;;;5.35;100.00;99029.38;4897472;29;20546;-76
2021/11/05 06:29:30;;;;;;;2.15;1.77;;;;;;;5.35;100.00;99037.06;4897495;29;20024;-76
2021/11/05 06:31:55;;;;;;;1.80;1.67;;;;;;;5.33;100.00;99045.63;4897185;29;20107;-76
2021/11/05 06:34:21;;;;;;;1.77;1.30;;;;;;;5.32;100.00;99047.34;4897421;29;20173;-77
2021/11/05 06:36:46;;;;;;;1.08;1.02;;;;;;;5.39;100.00;99049.09;4897218;29;20040;-76
2021/11/05 06:39:12;;;;;;;1.60;1.50;;;;;;;5.47;100.00;99062.00;4897347;29;20032;-76
2021/11/05 06:41:37;;;;;;;1.50;1.40;;;;;;;5.44;100.00;99055.97;4890099;29;20029;-77
2021/11/05 06:44:03;;;;;;;0.90;0.90;;;;;;;5.48;100.00;99058.59;4878615;29;20077;-76
2021/11/05 06:46:29;;;;;;;1.08;1.05;;;;;;;5.48;100.00;99070.56;4878562;29;20117;-76
2021/11/05 06:48:54;;;;;;;1.30;0.60;;;;;;;5.53;100.00;99076.59;4878499;29;20029;-76
2021/11/05 06:51:19;;;;;;;1.08;1.08;;;;;;;5.50;100.00;99086.84;4878684;29;20029;-76
2021/11/05 06:53:45;;;;;;;0.75;0.75;;;;;;;5.50;100.00;99087.72;4877198;29;20557;-77
2021/11/05 06:56:11;;;;;;;1.13;1.13;;;;;;;5.53;100.00;99103.16;4878454;29;20040;-77
2021/11/05 06:58:37;;;;;;;1.30;1.20;;;;;;;5.54;100.00;99098.88;4878369;29;20033;-76
2021/11/05 07:01:06;;;;;;;0.98;0.98;;;;;;;5.51;100.00;99098.84;4878428;29;20040;-76
2021/11/05 07:03:32;;;;;;;2.53;1.33;;;;;;;5.56;100.00;99112.59;4878149;29;20037;-76
2021/11/05 07:05:58;;;;;;;3.17;2.83;;;;;;;5.62;100.00;99118.66;4878265;29;20032;-76
2021/11/05 07:08:25;;;;;;;3.20;1.98;;;;;;;5.72;100.00;99119.59;4878246;29;20394;-76
2021/11/05 07:10:51;;;;;;;1.90;1.73;;;;;;;5.74;100.00;99123.00;4878513;29;20040;-77
2021/11/05 07:13:17;;;;;;;1.23;1.23;;;;;;;5.81;100.00;99129.94;4885601;29;20025;-77
2021/11/05 07:15:42;;;;;;;1.08;1.08;;;;;;;5.88;100.00;99134.25;4894064;29;20044;-77
2021/11/05 07:18:07;;;;;;;0.68;0.68;;;;;;;5.92;100.00;99143.75;4896839;29;20029;-72
2021/11/05 07:20:35;;;;;;;0.90;0.90;;;;;;;5.95;100.00;99149.75;4896892;29;20063;-72
2021/11/05 07:23:01;;;;;;;3.20;1.10;;;;;;;5.90;100.00;99158.28;4896895;29;20028;-72
2021/11/05 07:25:26;;;;;;;0.70;0.70;;;;;;;5.94;100.00;99166.88;4896810;29;20084;-72
2021/11/05 07:27:52;;;;;;;0.70;0.70;;;;;;;5.91;100.00;99170.31;4897192;29;20040;-72
2021/11/05 07:30:18;;;;;;;0.80;0.80;;;;;;;5.80;100.00;99179.63;4896832;29;20080;-72
2021/11/05 07:32:47;;;;;;;0.70;0.70;;;;;;;5.81;100.00;99180.50;4896626;29;20478;-72
2021/11/05 07:35:16;;;;;;;0.50;0.50;;;;;;;5.90;100.00;99189.13;4896856;29;20088;-72
2021/11/05 07:37:41;;;;;;;1.15;1.08;;;;;;;5.95;100.00;99198.59;4896711;29;20043;-72
2021/11/05 07:40:10;;;;;;;1.17;1.17;;;;;;;5.82;100.00;99193.34;4896797;29;20021;-72
2021/11/05 07:42:36;;;;;;;1.33;1.27;;;;;;;5.78;100.00;99201.03;4889523;29;20493;-72
2021/11/05 07:45:04;;;;;;;0.73;0.73;;;;;;;5.80;100.00;99213.06;4888832;29;20071;-72
2021/11/05 07:47:30;;;;;;;0.90;0.90;;;;;;;5.81;100.00;99212.22;4896590;29;20486;-72
2021/11/05 07:49:55;;;;;;;0.93;0.93;;;;;;;5.77;100.00;99217.31;4896726;29;20070;-72
2021/11/05 07:52:20;;;;;;;0.68;0.68;;;;;;;5.60;100.00;99218.00;4896472;29;20029;-72
2021/11/05 07:54:46;;;;;;;0.98;0.95;;;;;;;5.78;100.00;99222.47;4896868;29;20409;-72
2021/11/05 07:57:13;;;;;;;2.13;1.50;;;;;;;5.68;100.00;99216.38;4896513;29;20490;-72
2021/11/05 07:59:38;;;;;;;0.90;0.90;;;;;;;5.65;100.00;99225.75;4896423;29;20107;-72
2021/11/05 08:02:04;;;;;;;0.80;0.80;;;;;;;5.73;100.00;99224.13;4896407;29;20112;-72
2021/11/05 08:04:30;;;;;;;1.67;1.40;;;;;;;5.81;100.00;99232.78;4896567;29;20088;-72
2021/11/05 08:06:55;;;;;;;0.63;0.63;;;;;;;5.89;100.00;99236.25;4896416;29;20104;-72
2021/11/05 08:09:21;;;;;;;1.60;1.50;;;;;;;5.93;100.00;99243.19;4896482;29;20483;-72
2021/11/05 08:11:46;;;;;;;1.30;1.20;;;;;;;5.98;100.00;99247.50;4889051;29;20564;-72
2021/11/05 08:14:12;;;;;;;1.80;1.70;;;;;;;5.95;100.00;99252.63;4888621;29;20107;-72
2021/11/05 08:16:37;;;;;;;1.05;1.05;;;;;;;6.03;100.00;99259.53;4899402;29;20096;-72
2021/11/05 08:19:03;;;;;;;0.80;0.80;;;;;;;6.10;100.00;99256.19;4900063;29;20490;-72
2021/11/05 08:21:29;;;;;;;0.93;0.93;;;;;;;6.22;100.00;99264.84;4899750;29;20025;-72
2021/11/05 08:23:54;;;;;;;1.70;1.60;;;;;;;6.32;100.00;99267.47;4899809;29;20024;-72
2021/11/05 08:26:20;;;;;;;1.48;1.38;;;;;;;6.48;100.00;99263.31;4899597;29;20040;-72
2021/11/05 08:28:46;;;;;;;2.55;2.28;;;;;;;6.27;100.00;99278.59;4899717;29;20028;-72
2021/11/05 08:31:13;;;;;;;1.85;1.63;;;;;;;6.28;100.00;99276.03;4899354;29;20085;-72
2021/11/05 08:33:40;;;;;;;1.25;1.15;;;;;;;6.36;100.00;99282.09;4899506;29;20028;-72
2021/11/05 08:36:07;;;;;;;0.98;0.98;;;;;;;6.39;100.00;99289.84;4899400;29;20067;-72
2021/11/05 08:38:33;;;;;;;0.88;0.88;;;;;;;6.46;100.00;99288.16;4899563;29;20039;-72
2021/11/05 08:40:59;;;;;;;0.50;0.50;;;;;;;6.63;99.89;99288.28;4897481;29;20414;-72
2021/11/05 08:43:31;;;;;;;1.08;1.08;;;;;;;6.69;100.00;99296.03;4886579;29;20366;-72
2021/11/05 08:46:02;;;;;;;1.67;1.58;;;;;;;6.65;100.00;99300.31;4881328;29;20041;-72
2021/11/05 08:48:29;;;;;;;0.82;0.82;;;;;;;6.47;100.00;99305.31;4880853;29;20040;-72
2021/11/05 08:51:00;;;;;;;1.17;1.08;;;;;;;6.55;99.53;99305.41;4880496;29;20025;-72
2021/11/05 08:53:26;;;;;;;1.30;1.13;;;;;;;6.82;98.58;99310.72;4880339;29;20056;-72
2021/11/05 08:55:51;;;;;;;1.48;1.38;;;;;;;7.17;99.42;99310.03;4880415;29;20033;-72
2021/11/05 08:58:18;;;;;;;1.00;1.00;;;;;;;7.09;98.77;99316.84;4880381;29;20025;-72
2021/11/05 09:00:44;;;;;;;0.75;0.75;;;;;;;7.18;98.18;99314.31;4880460;29;20096;-72
2021/11/05 09:03:09;;;;;;;2.10;0.90;;;;;;;7.09;96.75;99314.28;4880236;29;20025;-72
2021/11/05 09:05:36;;;;;;;2.08;1.00;;;;;;;6.74;97.25;99316.69;4880208;29;20097;-72
2021/11/05 09:08:02;;;;;;;1.23;1.23;;;;;;;6.88;98.76;99323.63;4880311;29;20037;-72
2021/11/05 09:10:28;;;;;;;2.55;2.30;;;;;;;7.02;99.16;99330.56;4880273;29;20025;-72
2021/11/05 09:12:54;;;;;;;2.10;1.25;;;;;;;7.18;98.45;99330.66;4874827;29;20033;-72
2021/11/05 09:15:22;;;;;;;1.50;1.15;;;;;;;7.29;99.13;99334.97;4885516;29;20108;-72
2021/11/05 09:17:49;;;;;;;1.27;1.17;;;;;;;7.19;96.55;99341.81;4880230;29;20033;-72
2021/11/05 09:20:15;;;;;;;0.95;0.95;;;;;;;7.33;96.71;99334.13;4880063;29;20119;-72
2021/11/05 09:22:41;;;;;;;1.10;1.08;;;;;;;7.31;95.55;99341.88;4879953;29;20566;-72
2021/11/05 09:25:06;;;;;;;0.98;0.98;;;;;;;7.57;95.04;99334.22;4879973;29;20112;-72
2021/11/05 09:27:33;;;;;;;0.80;0.80;;;;;;;7.73;95.10;99340.28;4878960;29;20033;-72
2021/11/05 09:29:58;;;;;;;0.68;0.68;;;;;;;7.76;94.23;99350.63;4878663;29;20119;-72
2021/11/05 09:32:24;;;;;;;0.80;0.80;;;;;;;7.73;94.93;99355.75;4878472;29;20055;-72
2021/11/05 09:34:50;;;;;;;0.90;0.90;;;;;;;8.46;90.22;99355.91;4879679;29;20037;-72
2021/11/05 09:37:16;;;;;;;1.23;1.15;;;;;;;8.86;87.97;99361.03;4879790;29;20054;-72
2021/11/05 09:39:42;;;;;;;2.58;1.13;;;;;;;9.23;86.77;99356.63;4879961;29;20558;-72
2021/11/05 09:42:08;;;;;;;0.90;0.90;;;;;;;9.23;86.51;99360.91;4883277;29;20020;-72
2021/11/05 09:44:34;;;;;;;1.00;1.00;;;;;;;9.61;82.66;99357.31;4890600;29;20152;-72
2021/11/05 09:47:02;;;;;;;2.08;1.55;;;;;;;10.08;80.51;99359.66;4898381;29;20111;-72
2021/11/05 09:49:28;;;;;;;1.52;1.15;;;;;;;9.65;79.84;99364.22;4898190;29;20063;-72
2021/11/05 09:51:59;;;;;;;4.25;1.17;;;;;;;9.82;83.20;99370.16;4898026;29;20036;-72
2021/11/05 09:54:25;;;;;;;0.63;0.63;;;;;;;9.82;82.29;99382.25;4897974;29;20045;-72
2021/11/05 09:56:52;;;;;;;1.17;0.70;;;;;;;10.22;78.88;99377.69;4898025;29;20501;-72
2021/11/05 09:59:17;;;;;;;0.70;0.70;;;;;;;10.27;77.46;99381.13;4898261;29;20039;-72
2021/11/05 10:01:43;;;;;;;1.67;1.35;;;;;;;9.69;79.64;99394.38;4897817;29;20033;-72
2021/11/05 10:04:09;;;;;;;1.17;1.08;;;;;;;9.44;80.32;99399.66;4898002;29;20030;-72
2021/11/05 10:06:35;;;;;;;1.25;1.13;;;;;;;9.04;84.60;99403.19;4897821;29;20141;-72
2021/11/05 10:09:02;;;;;;;4.43;2.42;;;;;;;9.27;84.59;99399.69;4897920;29;20060;-72
2021/11/05 10:11:32;;;;;;;1.30;1.20;;;;;;;9.06;83.25;99410.09;4892169;29;20025;-72
2021/11/05 10:13:59;;;;;;;;;;;;;;;9.19;85.20;99400.59;4887487;29;20041;-72
2021/11/05 10:16:25;;;;;;;3.55;1.75;;;;;;;9.39;84.60;99403.13;4879047;29;20010;-72
2021/11/05 10:19:01;;;;;;;1.83;1.58;;;;;;;9.19;83.38;99405.78;4879010;29;20083;-72
2021/11/05 10:21:27;;;;;;;1.98;1.77;;;;;;;9.36;84.28;99409.16;4878836;29;20032;-72
2021/11/05 10:24:05;;;;;;;0.90;0.90;;;;;;;9.24;82.14;99410.06;4879049;29;20372;-72
2021/11/05 10:26:33;;;;;;;1.17;1.17;;;;;;;9.17;84.92;99417.81;4878535;29;20487;-72
2021/11/05 10:28:59;;;;;;;9.15;1.10;;;;;;;8.34;88.94;99412.66;4878579;29;20112;-72
2021/11/05 10:31:26;;;;;;;1.40;1.30;;;;;;;8.39;90.42;99413.56;4878472;29;20108;-72
2021/11/05 10:33:51;;;;;;;1.20;1.17;;;;;;;8.53;90.68;99412.72;4878575;29;20028;-72
2021/11/05 10:36:23;;;;;;;1.17;1.17;;;;;;;8.49;88.84;99417.00;4878383;29;20021;-72
2021/11/05 10:38:57;;;;;;;2.28;1.10;;;;;;;8.34;88.12;99417.81;4878220;29;20559;-72
2021/11/05 10:41:24;;;;;;;1.58;1.48;;;;;;;7.99;90.02;99418.63;4878303;29;20380;-72
2021/11/05 10:43:55;;;;;;;1.02;1.00;;;;;;;8.42;89.27;99416.16;4884761;29;20025;-73
2021/11/05 10:46:35;;;;;;;31.65;7.32;;;;;;;8.82;88.25;99426.47;4878928;29;20025;-72
2021/11/05 10:49:19;;;;;;;13.13;5.07;;;;;;;8.96;87.22;99424.75;4878609;29;20104;-72
2021/11/05 10:51:46;;;;;;;4.28;1.98;;;;;;;9.33;86.25;99419.53;4878195;29;20025;-72
2021/11/05 10:54:12;;;;;;;2.45;1.73;;;;;;;9.36;85.52;99421.22;4878588;29;20036;-72
2021/11/05 10:56:39;;;;;;;3.33;1.92;;;;;;;9.38;85.02;99428.13;4878443;29;20025;-72
2021/11/05 10:59:08;;;;;;;2.53;1.63;;;;;;;9.68;83.08;99426.31;4878250;29;20066;-72
2021/11/05 11:01:39;;;;;;;2.63;1.45;;;;;;;9.91;79.50;99427.06;4878328;29;20029;-72
2021/11/05 11:04:07;;;;;;;6.97;2.78;;;;;;;10.14;77.82;99423.47;4878044;29;20044;-72
2021/11/05 11:06:41;;;;;;;5.60;1.30;;;;;;;10.59;77.79;99422.34;4878155;29;20069;-72
2021/11/05 11:09:15;;;;;;;2.55;1.42;;;;;;;11.43;77.31;99416.38;4878354;29;20391;-72
2021/11/05 11:11:46;;;;;;;1.33;1.23;;;;;;;12.54;68.99;99418.38;4878333;29;20028;-72
2021/11/05 11:14:31;;;;;;;1.77;1.63;;;;;;;12.93;66.67;99418.59;4889019;29;20028;-72
2021/11/05 11:16:56;;;;;;;8.35;2.10;;;;;;;11.92;69.17;99426.19;4897051;29;20398;-72
2021/11/05 11:19:36;;;;;;;3.17;1.60;;;;;;;11.06;70.54;99429.69;4895851;29;20045;-73
2021/11/05 11:22:05;;;;;;;2.95;1.33;;;;;;;11.28;73.54;99429.50;4896593;29;20028;-72
2021/11/05 11:24:34;;;;;;;0.88;0.85;;;;;;;11.67;70.43;99427.34;4896801;29;20087;-72
2021/11/05 11:27:02;;;;;;;0.60;0.60;;;;;;;11.79;71.56;99429.78;4896858;29;20021;-72
2021/11/05 11:29:28;;;;;;;2.10;1.25;;;;;;;12.29;69.20;99425.69;4897294;29;20039;-72
2021/11/05 11:31:56;;;;;;;1.38;1.02;;;;;;;11.88;69.41;99434.88;4896527;29;20120;-72
2021/11/05 11:34:22;;;;;;;2.03;1.38;;;;;;;12.28;70.15;99431.75;4896693;29;20085;-72
2021/11/05 11:36:53;;;;;;;1.80;1.58;;;;;;;12.55;71.06;99428.75;4896582;29;20395;-72
2021/11/05 11:39:21;;;;;;;1.23;1.17;;;;;;;12.68;69.42;99425.97;4896700;29;20028;-72
2021/11/05 11:41:48;;;;;;;0.98;0.90;;;;;;;12.53;67.24;99432.25;4889279;29;20081;-72
2021/11/05 11:44:17;;;;;;;1.50;1.30;;;;;;;12.33;65.66;99428.22;4888776;29;20031;-72
2021/11/05 11:47:05;;;;;;;1.42;1.33;;;;;;;11.89;68.22;99431.41;4896594;29;20036;-72
2021/11/05 11:49:47;;;;;;;2.78;1.23;;;;;;;11.30;71.14;99446.75;4896977;29;20048;-72
2021/11/05 11:52:19;;;;;;;0.65;0.65;;;;;;;10.25;71.86;99445.00;4900135;29;20479;-72
2021/11/05 11:54:47;;;;;;;0.60;0.60;;;;;;;10.59;70.90;99449.97;4900265;29;20044;-73
2021/11/05 11:57:27;;;;;;;0.85;0.85;;;;;;;10.61;75.11;99448.25;4900085;29;20055;-73
2021/11/05 12:00:10;;;;;;;1.48;1.38;;;;;;;10.18;74.38;99453.66;4900140;29;20024;-73
2021/11/05 12:02:38;;;;;;;1.00;1.00;;;;;;;10.25;76.45;99442.41;4899993;29;20028;-72
2021/11/05 12:05:30;;;;;;;1.20;1.10;;;;;;;10.33;77.78;99448.44;4900026;29;20032;-73
2021/11/05 12:08:17;;;;;;;0.93;0.90;;;;;;;10.19;77.55;99455.38;4899896;29;20141;-72
2021/11/05 12:10:46;;;;;;;1.27;1.17;;;;;;;11.31;71.30;99450.22;4899981;29;20036;-72
2021/11/05 12:13:34;;;;;;;1.75;1.20;;;;;;;11.39;69.95;99451.00;4882017;29;20264;-72
2021/11/05 12:16:13;;;;;;;0.90;0.90;;;;;;;11.27;73.22;99456.34;4898783;29;20203;-72
2021/11/05 12:19:03;;;;;;;1.50;0.90;;;;;;;11.88;71.54;99445.28;4899849;29;20509;-72
2021/11/05 12:21:54;;;;;;;0.93;0.93;;;;;;;12.04;71.09;99446.81;4899642;29;20037;-72
2021/11/05 12:24:23;;;;;;;0.75;0.75;;;;;;;12.24;68.31;99443.94;4894350;29;20047;-73
2021/11/05 12:27:01;;;;;;;2.38;1.60;;;;;;;12.00;68.67;99445.13;4899576;29;20032;-72
2021/11/05 12:29:33;;;;;;;0.93;0.90;;;;;;;11.54;70.05;99456.03;4899698;29;20024;-72
2021/11/05 12:32:19;;;;;;;2.97;1.38;;;;;;;11.08;71.88;99460.84;4899284;29;20152;-72
2021/11/05 12:34:48;;;;;;;1.38;1.15;;;;;;;10.84;70.33;99461.91;4899405;29;20040;-72
2021/11/05 12:37:29;;;;;;;3.43;1.50;;;;;;;11.31;69.29;99458.88;4899354;29;20033;-72
2021/11/05 12:40:15;;;;;;;2.28;1.05;;;;;;;11.10;70.88;99453.03;4899704;29;20394;-72
2021/11/05 12:42:40;;;;;;;1.38;1.27;;;;;;;10.79;72.66;99461.94;4891555;29;20025;-72
2021/11/05 12:45:06;;;;;;;1.10;1.02;;;;;;;10.63;72.81;99462.03;4891857;29;20061;-72
2021/11/05 12:47:47;;;;;;;0.80;0.80;;;;;;;10.59;75.27;99465.53;4899264;29;20365;-72
2021/11/05 12:50:34;;;;;;;1.52;1.33;;;;;;;10.81;74.37;99461.91;4899303;29;20024;-72
2021/11/05 12:53:06;;;;;;;1.48;1.38;;;;;;;10.68;71.91;99457.69;4899110;29;20132;-72
2021/11/05 12:55:35;;;;;;;1.60;1.40;;;;;;;10.80;73.34;99462.78;4899316;29;20031;-72
2021/11/05 12:58:02;;;;;;;1.20;1.10;;;;;;;10.82;72.32;99466.22;4899199;29;20036;-72
2021/11/05 13:00:31;;;;;;;1.05;1.05;;;;;;;10.79;74.89;99474.03;4899097;29;20071;-72
2021/11/05 13:03:02;;;;;;;3.17;1.55;;;;;;;10.81;72.24;99472.28;4897635;29;20120;-72
2021/11/05 13:05:29;;;;;;;4.72;1.45;;;;;;;10.79;74.85;99481.81;4899165;29;20029;-72
2021/11/05 13:08:11;;;;;;;1.25;1.17;;;;;;;10.02;72.79;99479.63;4898945;29;20035;-72
2021/11/05 13:10:41;;;;;;;1.88;1.48;;;;;;;10.64;71.61;99479.34;4899030;29;20037;-72
2021/11/05 13:13:10;;;;;;;2.55;1.95;;;;;;;10.66;71.04;99477.59;4887732;29;20025;-72
2021/11/05 13:15:38;;;;;;;1.75;1.52;;;;;;;10.75;70.80;99480.09;4894925;29;20032;-72
2021/11/05 13:18:05;;;;;;;2.55;1.88;;;;;;;10.51;71.41;99484.59;4898649;29;20063;-73
2021/11/05 13:20:42;;;;;;;1.60;1.50;;;;;;;9.85;75.46;99491.78;4898822;29;20032;-72
2021/11/05 13:23:10;;;;;;;2.40;1.90;;;;;;;10.37;74.01;99486.41;4898650;29;20447;-72
2021/11/05 13:25:38;;;;;;;1.33;1.23;;;;;;;10.55;71.78;99491.47;4898605;29;20028;-72
2021/11/05 13:28:05;;;;;;;2.40;1.92;;;;;;;10.62;74.32;99491.44;4898525;29;20032;-72
2021/11/05 13:30:35;;;;;;;2.15;1.08;;;;;;;10.49;73.41;99491.53;4898606;29;20398;-72
2021/11/05 13:33:01;;;;;;;3.13;1.80;;;;;;;10.51;73.28;99494.94;4898782;29;20017;-72
2021/11/05 13:35:27;;;;;;;1.95;1.10;;;;;;;10.42;72.86;99500.19;4898300;29;20032;-72
2021/11/05 13:38:04;;;;;;;3.53;1.90;;;;;;;10.43;75.11;99495.84;4898480;29;20390;-72
2021/11/05 13:40:30;;;;;;;3.03;1.30;;;;;;;10.58;71.96;99494.91;4898510;29;20036;-72
2021/11/05 13:42:56;;;;;;;1.90;1.13;;;;;;;10.27;73.77;99500.28;4888658;29;20107;-72
2021/11/05 13:45:21;;;;;;;1.33;1.25;;;;;;;10.39;73.77;99494.16;4892530;29;20107;-72
2021/11/05 13:47:49;;;;;;;1.65;1.55;;;;;;;10.00;76.70;99502.06;4898230;29;20524;-72
2021/11/05 13:50:19;;;;;;;4.82;2.63;;;;;;;9.67;77.09;99516.00;4898146;29;20032;-72
2021/11/05 13:53:01;;;;;;;;;;;;;;;9.28;80.57;99514.31;4898470;29;20025;-72
2021/11/05 13:55:38;;;;;;;2.70;2.05;;;;;;;8.98;83.18;99526.41;4898079;29;20436;-72
2021/11/05 13:58:06;;;;;;;2.28;2.08;;;;;;;9.45;80.97;99525.53;4898104;29;20032;-72
2021/11/05 14:00:43;;;;;;;2.17;1.65;;;;;;;9.36;80.57;99530.69;4897904;29;20057;-72
2021/11/05 14:03:09;;;;;;;2.53;1.77;;;;;;;9.22;82.80;99529.84;4897981;29;20032;-72
2021/11/05 14:05:35;;;;;;;3.03;2.03;;;;;;;8.94;84.17;99540.19;4897882;29;20037;-72
2021/11/05 14:08:06;;;;;;;2.25;2.05;;;;;;;9.22;81.01;99543.63;4898015;29;20044;-72
2021/11/05 14:10:45;;;;;;;2.17;1.77;;;;;;;9.06;82.94;99541.06;4897772;29;20032;-72
2021/11/05 14:13:11;;;;;;;2.22;2.03;;;;;;;8.86;83.17;99546.22;4879245;29;20052;-72
2021/11/05 14:15:37;;;;;;;1.65;1.55;;;;;;;9.01;82.44;99547.09;4893851;29;20036;-72
2021/11/05 14:18:11;;;;;;;2.35;1.92;;;;;;;9.06;82.05;99548.81;4898012;29;20489;-72
2021/11/05 14:20:36;;;;;;;1.88;1.38;;;;;;;9.20;81.78;99553.13;4897737;29;20418;-72
2021/11/05 14:23:02;;;;;;;4.60;1.77;;;;;;;9.28;81.95;99550.53;4897621;29;20033;-72
2021/11/05 14:25:29;;;;;;;3.08;2.88;;;;;;;9.06;82.50;99559.16;4897450;29;20027;-72
2021/11/05 14:27:56;;;;;;;3.63;2.35;;;;;;;8.73;84.06;99566.00;4897801;29;20422;-72
2021/11/05 14:30:28;;;;;;;1.92;1.73;;;;;;;9.05;82.77;99562.63;4897443;29;20482;-72
2021/11/05 14:32:57;;;;;;;2.60;2.40;;;;;;;9.17;83.11;99562.59;4897122;29;20033;-72
2021/11/05 14:35:28;;;;;;;2.35;2.08;;;;;;;9.07;82.78;99566.03;4897429;29;20544;-72
2021/11/05 14:38:07;;;;;;;2.13;2.03;;;;;;;9.08;81.26;99562.59;4897367;29;20028;-72
2021/11/05 14:40:37;;;;;;;2.35;2.15;;;;;;;8.66;82.30;99569.44;4897640;29;20032;-72
2021/11/05 14:43:06;;;;;;;1.95;1.85;;;;;;;8.93;81.74;99568.63;4886532;29;20446;-72
2021/11/05 14:45:45;;;;;;;2.55;1.77;;;;;;;8.89;82.91;99570.31;4892771;29;20025;-72
2021/11/05 14:48:20;;;;;;;1.90;1.80;;;;;;;8.86;82.77;99574.66;4896950;29;20450;-72
2021/11/05 14:50:52;;;;;;;1.48;1.38;;;;;;;8.74;82.59;99580.63;4897128;29;20107;-72
2021/11/05 14:53:31;;;;;;;3.13;2.75;;;;;;;8.61;85.22;99581.47;4896750;29;20048;-72
2021/11/05 14:55:59;;;;;;;2.17;1.27;;;;;;;8.60;82.57;99584.91;4897034;29;20024;-72
2021/11/05 14:58:45;;;;;;;2.00;1.80;;;;;;;8.53;86.54;99588.34;4896829;29;20120;-72
2021/11/05 15:01:19;;;;;;;1.33;1.25;;;;;;;8.46;87.62;99588.31;4896711;29;20032;-72
2021/11/05 15:03:44;;;;;;;1.33;1.15;;;;;;;8.48;85.18;99590.91;4896899;29;20052;-72
2021/11/05 15:06:12;;;;;;;2.72;1.90;;;;;;;8.68;86.78;99588.38;4896836;29;20067;-72
2021/11/05 15:08:41;;;;;;;4.28;1.90;;;;;;;8.52;87.05;99597.81;4891453;29;20475;-72
2021/11/05 15:11:08;;;;;;;3.25;1.40;;;;;;;8.49;86.64;99598.66;4870635;29;20101;-72
2021/11/05 15:13:36;;;;;;;2.13;1.85;;;;;;;8.39;86.96;99601.19;4885989;29;20111;-72
2021/11/05 15:16:05;;;;;;;3.00;2.80;;;;;;;8.47;84.55;99599.50;4896351;29;20055;-72
2021/11/05 15:18:31;;;;;;;3.55;1.98;;;;;;;8.39;87.01;99614.97;4896768;29;20483;-72
2021/11/05 15:20:57;;;;;;;1.88;1.67;;;;;;;8.34;87.40;99619.22;4896850;29;20036;-72
2021/11/05 15:23:25;;;;;;;3.05;2.22;;;;;;;8.45;86.77;99616.69;4896529;29;20071;-72
2021/11/05 15:26:00;;;;;;;7.63;2.15;;;;;;;8.40;85.60;99618.41;4899098;29;20447;-72
2021/11/05 15:28:26;;;;;;;1.85;1.58;;;;;;;8.23;89.01;99626.91;4900754;29;20024;-72
2021/11/05 15:30:53;;;;;;;3.92;1.80;;;;;;;8.24;88.85;99627.78;4884488;29;20372;-72
2021/11/05 15:33:21;;;;;;;2.30;2.13;;;;;;;8.42;87.94;99635.66;4887634;29;20029;-72
2021/11/05 15:35:47;;;;;;;1.88;1.77;;;;;;;8.54;86.92;99637.41;4881779;29;20036;-72
2021/11/05 15:38:15;;;;;;;3.15;1.95;;;;;;;8.54;86.94;99637.41;4881764;29;20040;-72
2021/11/05 15:40:44;;;;;;;2.25;1.92;;;;;;;8.44;87.80;99641.66;4880535;29;20036;-72
2021/11/05 15:43:10;;;;;;;2.33;1.93;;;;;;;8.38;88.87;99646.81;4882322;29;20490;-72
2021/11/05 15:45:38;;;;;;;1.60;1.50;;;;;;;8.11;92.20;99638.88;4896421;29;20759;-72
2021/11/05 15:48:04;;;;;;;1.88;1.73;;;;;;;7.98;90.69;99645.72;4900373;29;20028;-72
2021/11/05 15:50:34;;;;;;;2.08;1.42;;;;;;;7.82;91.00;99655.03;4900096;29;20112;-72
2021/11/05 15:53:00;;;;;;;1.98;1.42;;;;;;;7.77;91.89;99650.69;4899935;29;20069;-72
2021/11/05 15:55:26;;;;;;;1.50;1.40;;;;;;;7.68;93.46;99654.06;4900002;29;20120;-72
2021/11/05 15:57:52;;;;;;;3.30;2.17;;;;;;;7.60;93.09;99655.75;4900183;29;20115;-72
2021/11/05 16:00:22;;;;;;;3.33;1.60;;;;;;;7.70;93.95;99652.38;4892463;29;20133;-72